sensor_id;sensor_type;location;lat;lon;timestamp;pressure;altitude;pressure_sealevel;temperature;humidity
56176;BME280;63065;51.082;17.016;2022-09-13T00:00:12;100143.09;;;17.41;44.24
56176;BME280;63065;51.082;17.016;2022-09-13T00:02:37;100142.27;;;17.31;44.36
56176;BME280;63065;51.082;17.016;2022-09-13T00:05:02;100140.72;;;17.28;44.63
56176;BME280;63065;51.082;17.016;2022-09-13T00:07:28;100137.19;;;17.29;44.57
56176;BME280;63065;51.082;17.016;2022-09-13T00:09:53;100139.70;;;17.19;44.34
56176;BME280;63065;51.082;17.016;2022-09-13T00:12:19;100139.90;;;17.43;44.72
56176;BME280;63065;51.082;17.016;2022-09-13T00:14:44;100142.06;;;17.11;44.64
56176;BME280;63065;51.082;17.016;2022-09-13T00:17:09;100141.72;;;17.38;44.43
56176;BME280;63065;51.082;17.016;2022-09-13T00:19:36;100136.42;;;16.71;44.83
56176;BME280;63065;51.082;17.016;2022-09-13T00:21:59;100136.48;;;16.98;45.01
56176;BME280;63065;51.082;17.016;2022-09-13T00:24:24;100136.60;;;17.22;45.01
56176;BME280;63065;51.082;17.016;2022-09-13T00:26:50;100133.42;;;17.16;44.66
56176;BME280;63065;51.082;17.016;2022-09-13T00:29:15;100133.87;;;17.21;44.60
56176;BME280;63065;51.082;17.016;2022-09-13T00:31:40;100130.49;;;17.02;44.77
56176;BME280;63065;51.082;17.016;2022-09-13T00:34:05;100124.70;;;16.78;44.54
56176;BME280;63065;51.082;17.016;2022-09-13T00:36:31;100122.03;;;16.83;44.18
56176;BME280;63065;51.082;17.016;2022-09-13T00:38:56;100122.41;;;16.87;44.17
56176;BME280;63065;51.082;17.016;2022-09-13T00:41:21;100120.80;;;16.87;44.13
56176;BME280;63065;51.082;17.016;2022-09-13T00:43:49;100119.52;;;17.01;44.40
56176;BME280;63065;51.082;17.016;2022-09-13T00:46:17;100117.04;;;16.76;44.01
56176;BME280;63065;51.082;17.016;2022-09-13T00:48:38;100112.80;;;16.91;44.22
56176;BME280;63065;51.082;17.016;2022-09-13T00:51:05;100109.31;;;16.96;44.71
56176;BME280;63065;51.082;17.016;2022-09-13T00:53:31;100108.36;;;17.01;44.57
56176;BME280;63065;51.082;17.016;2022-09-13T00:55:57;100109.51;;;16.90;44.61
56176;BME280;63065;51.082;17.016;2022-09-13T00:58:21;100110.16;;;16.90;44.48
56176;BME280;63065;51.082;17.016;2022-09-13T01:00:45;100110.83;;;16.67;44.51
56176;BME280;63065;51.082;17.016;2022-09-13T01:03:12;100108.85;;;16.94;44.49
56176;BME280;63065;51.082;17.016;2022-09-13T01:05:38;100107.74;;;16.52;44.49
56176;BME280;63065;51.082;17.016;2022-09-13T01:08:01;100110.18;;;16.68;44.49
56176;BME280;63065;51.082;17.016;2022-09-13T01:10:27;100104.53;;;16.80;44.46
56176;BME280;63065;51.082;17.016;2022-09-13T01:12:58;100104.79;;;16.55;44.20
56176;BME280;63065;51.082;17.016;2022-09-13T01:15:18;100105.05;;;16.68;44.31
56176;BME280;63065;51.082;17.016;2022-09-13T01:17:43;100107.11;;;16.79;44.19
56176;BME280;63065;51.082;17.016;2022-09-13T01:20:10;100106.32;;;17.03;44.54
56176;BME280;63065;51.082;17.016;2022-09-13T01:25:15;100102.18;;;16.68;44.42
56176;BME280;63065;51.082;17.016;2022-09-13T01:27:34;100098.46;;;16.70;44.40
56176;BME280;63065;51.082;17.016;2022-09-13T01:32:23;100095.90;;;16.97;44.44
56176;BME280;63065;51.082;17.016;2022-09-13T01:34:49;100096.22;;;16.48;44.48
56176;BME280;63065;51.082;17.016;2022-09-13T01:37:19;100091.40;;;16.64;44.45
56176;BME280;63065;51.082;17.016;2022-09-13T01:39:45;100088.76;;;16.88;44.58
56176;BME280;63065;51.082;17.016;2022-09-13T01:42:06;100084.62;;;16.51;44.38
56176;BME280;63065;51.082;17.016;2022-09-13T01:44:37;100084.96;;;16.54;44.53
56176;BME280;63065;51.082;17.016;2022-09-13T01:46:55;100082.51;;;16.55;44.44
56176;BME280;63065;51.082;17.016;2022-09-13T01:49:17;100078.90;;;16.53;44.65
56176;BME280;63065;51.082;17.016;2022-09-13T01:51:43;100075.22;;;16.74;44.45
56176;BME280;63065;51.082;17.016;2022-09-13T01:54:12;100075.18;;;16.46;44.46
56176;BME280;63065;51.082;17.016;2022-09-13T01:56:34;100070.27;;;16.44;44.53
56176;BME280;63065;51.082;17.016;2022-09-13T01:58:58;100066.22;;;16.70;44.94
56176;BME280;63065;51.082;17.016;2022-09-13T02:01:23;100058.55;;;16.69;44.89
56176;BME280;63065;51.082;17.016;2022-09-13T02:03:50;100057.50;;;16.67;44.76
56176;BME280;63065;51.082;17.016;2022-09-13T02:06:14;100052.91;;;16.33;44.48
56176;BME280;63065;51.082;17.016;2022-09-13T02:08:40;100052.02;;;16.61;44.84
56176;BME280;63065;51.082;17.016;2022-09-13T02:11:08;100047.06;;;16.22;44.31
56176;BME280;63065;51.082;17.016;2022-09-13T02:13:34;100039.18;;;16.25;44.41
56176;BME280;63065;51.082;17.016;2022-09-13T02:15:58;100036.27;;;16.22;44.50
56176;BME280;63065;51.082;17.016;2022-09-13T02:18:23;100036.06;;;16.14;44.11
56176;BME280;63065;51.082;17.016;2022-09-13T02:20:47;100030.12;;;16.16;44.19
56176;BME280;63065;51.082;17.016;2022-09-13T02:23:13;100026.18;;;16.33;44.37
56176;BME280;63065;51.082;17.016;2022-09-13T02:25:36;100025.86;;;16.27;44.36
56176;BME280;63065;51.082;17.016;2022-09-13T02:28:04;100029.22;;;16.37;44.23
56176;BME280;63065;51.082;17.016;2022-09-13T02:30:27;100026.74;;;16.05;44.51
56176;BME280;63065;51.082;17.016;2022-09-13T02:32:55;100027.97;;;16.41;44.94
56176;BME280;63065;51.082;17.016;2022-09-13T02:35:19;100024.99;;;16.49;44.84
56176;BME280;63065;51.082;17.016;2022-09-13T02:37:46;100023.62;;;16.48;45.03
56176;BME280;63065;51.082;17.016;2022-09-13T02:40:11;100020.99;;;16.52;44.91
56176;BME280;63065;51.082;17.016;2022-09-13T02:42:37;100015.99;;;16.53;45.15
56176;BME280;63065;51.082;17.016;2022-09-13T02:44:59;100015.31;;;16.42;44.67
56176;BME280;63065;51.082;17.016;2022-09-13T02:47:36;100013.13;;;16.27;44.44
56176;BME280;63065;51.082;17.016;2022-09-13T02:49:56;100013.88;;;16.37;44.72
56176;BME280;63065;51.082;17.016;2022-09-13T02:52:20;100007.96;;;16.46;45.01
56176;BME280;63065;51.082;17.016;2022-09-13T02:54:46;100007.07;;;16.40;44.66
56176;BME280;63065;51.082;17.016;2022-09-13T02:57:11;100003.15;;;16.39;44.88
56176;BME280;63065;51.082;17.016;2022-09-13T02:59:31;99998.54;;;16.45;44.98
56176;BME280;63065;51.082;17.016;2022-09-13T03:01:59;99992.79;;;16.46;45.03
56176;BME280;63065;51.082;17.016;2022-09-13T03:04:22;99989.30;;;16.51;45.36
56176;BME280;63065;51.082;17.016;2022-09-13T03:06:48;99986.75;;;16.51;45.28
56176;BME280;63065;51.082;17.016;2022-09-13T03:09:13;99985.62;;;16.58;45.34
56176;BME280;63065;51.082;17.016;2022-09-13T03:14:16;99978.56;;;16.52;45.02
56176;BME280;63065;51.082;17.016;2022-09-13T03:16:39;99976.07;;;16.54;45.01
56176;BME280;63065;51.082;17.016;2022-09-13T03:19:07;99974.75;;;16.43;44.88
56176;BME280;63065;51.082;17.016;2022-09-13T03:21:33;99974.84;;;16.45;44.76
56176;BME280;63065;51.082;17.016;2022-09-13T03:23:52;99972.51;;;16.48;44.65
56176;BME280;63065;51.082;17.016;2022-09-13T03:26:20;99966.43;;;16.59;44.89
56176;BME280;63065;51.082;17.016;2022-09-13T03:28:41;99957.00;;;16.45;44.60
56176;BME280;63065;51.082;17.016;2022-09-13T03:31:06;99956.46;;;16.45;44.96
56176;BME280;63065;51.082;17.016;2022-09-13T03:33:30;99956.69;;;16.31;44.46
56176;BME280;63065;51.082;17.016;2022-09-13T03:35:55;99953.55;;;16.12;44.31
56176;BME280;63065;51.082;17.016;2022-09-13T03:38:23;99949.91;;;16.12;44.25
56176;BME280;63065;51.082;17.016;2022-09-13T03:40:47;99946.36;;;15.90;44.74
56176;BME280;63065;51.082;17.016;2022-09-13T03:43:12;99942.99;;;16.22;44.87
56176;BME280;63065;51.082;17.016;2022-09-13T03:45:38;99942.14;;;16.21;44.70
56176;BME280;63065;51.082;17.016;2022-09-13T03:48:00;99942.73;;;16.00;45.22
56176;BME280;63065;51.082;17.016;2022-09-13T03:50:25;99939.76;;;16.13;44.94
56176;BME280;63065;51.082;17.016;2022-09-13T03:52:53;99941.94;;;16.15;44.76
56176;BME280;63065;51.082;17.016;2022-09-13T03:55:18;99943.03;;;16.03;44.54
56176;BME280;63065;51.082;17.016;2022-09-13T03:57:41;99947.15;;;15.80;44.46
56176;BME280;63065;51.082;17.016;2022-09-13T04:00:08;99947.99;;;15.67;44.59
56176;BME280;63065;51.082;17.016;2022-09-13T04:02:31;99946.84;;;15.84;44.81
56176;BME280;63065;51.082;17.016;2022-09-13T04:04:57;99943.90;;;15.69;44.89
56176;BME280;63065;51.082;17.016;2022-09-13T04:07:23;99943.56;;;15.65;44.48
56176;BME280;63065;51.082;17.016;2022-09-13T04:09:48;99942.23;;;15.34;44.52
56176;BME280;63065;51.082;17.016;2022-09-13T04:12:14;99940.59;;;15.52;45.12
56176;BME280;63065;51.082;17.016;2022-09-13T04:14:39;99940.33;;;16.10;44.75
56176;BME280;63065;51.082;17.016;2022-09-13T04:17:05;99940.62;;;15.77;44.54
56176;BME280;63065;51.082;17.016;2022-09-13T04:19:31;99935.78;;;16.03;44.86
56176;BME280;63065;51.082;17.016;2022-09-13T04:21:56;99937.39;;;15.81;44.75
56176;BME280;63065;51.082;17.016;2022-09-13T04:24:25;99939.89;;;15.95;44.48
56176;BME280;63065;51.082;17.016;2022-09-13T04:26:49;99940.09;;;15.94;44.97
56176;BME280;63065;51.082;17.016;2022-09-13T04:29:13;99938.57;;;15.86;44.46
56176;BME280;63065;51.082;17.016;2022-09-13T04:31:38;99939.15;;;16.07;44.85
56176;BME280;63065;51.082;17.016;2022-09-13T04:34:04;99937.43;;;16.26;45.10
56176;BME280;63065;51.082;17.016;2022-09-13T04:36:29;99935.46;;;16.08;44.87
56176;BME280;63065;51.082;17.016;2022-09-13T04:38:55;99939.57;;;15.67;45.19
56176;BME280;63065;51.082;17.016;2022-09-13T04:41:20;99934.58;;;15.81;44.70
56176;BME280;63065;51.082;17.016;2022-09-13T04:43:48;99935.34;;;15.92;44.44
56176;BME280;63065;51.082;17.016;2022-09-13T04:46:11;99935.15;;;16.12;44.75
56176;BME280;63065;51.082;17.016;2022-09-13T04:48:36;99932.25;;;16.23;44.60
56176;BME280;63065;51.082;17.016;2022-09-13T04:51:03;99929.92;;;16.34;44.50
56176;BME280;63065;51.082;17.016;2022-09-13T04:53:28;99930.33;;;16.22;44.48
56176;BME280;63065;51.082;17.016;2022-09-13T04:55:55;99932.96;;;16.50;44.38
56176;BME280;63065;51.082;17.016;2022-09-13T04:58:20;99933.36;;;16.57;44.46
56176;BME280;63065;51.082;17.016;2022-09-13T05:00:44;99935.13;;;16.37;44.63
56176;BME280;63065;51.082;17.016;2022-09-13T05:03:10;99931.00;;;16.42;44.58
56176;BME280;63065;51.082;17.016;2022-09-13T05:05:35;99936.97;;;16.43;44.48
56176;BME280;63065;51.082;17.016;2022-09-13T05:08:01;99938.58;;;16.46;44.53
56176;BME280;63065;51.082;17.016;2022-09-13T05:10:26;99939.02;;;16.59;44.65
56176;BME280;63065;51.082;17.016;2022-09-13T05:12:51;99938.07;;;16.85;44.81
56176;BME280;63065;51.082;17.016;2022-09-13T05:15:16;99937.90;;;16.89;44.71
56176;BME280;63065;51.082;17.016;2022-09-13T05:17:42;99934.20;;;16.45;44.39
56176;BME280;63065;51.082;17.016;2022-09-13T05:20:08;99933.23;;;16.02;45.05
56176;BME280;63065;51.082;17.016;2022-09-13T05:22:33;99934.07;;;16.50;44.91
56176;BME280;63065;51.082;17.016;2022-09-13T05:24:58;99933.38;;;16.84;44.77
56176;BME280;63065;51.082;17.016;2022-09-13T05:27:23;99932.72;;;16.63;44.85
56176;BME280;63065;51.082;17.016;2022-09-13T05:29:49;99933.27;;;16.64;44.41
56176;BME280;63065;51.082;17.016;2022-09-13T05:32:14;99927.71;;;16.99;44.73
56176;BME280;63065;51.082;17.016;2022-09-13T05:34:39;99925.74;;;16.02;44.69
56176;BME280;63065;51.082;17.016;2022-09-13T05:37:05;99924.96;;;16.78;44.53
56176;BME280;63065;51.082;17.016;2022-09-13T05:39:30;99926.61;;;17.11;44.60
56176;BME280;63065;51.082;17.016;2022-09-13T05:41:56;99926.89;;;17.19;44.51
56176;BME280;63065;51.082;17.016;2022-09-13T05:44:22;99926.34;;;17.32;44.57
56176;BME280;63065;51.082;17.016;2022-09-13T05:46:48;99922.35;;;17.13;44.45
56176;BME280;63065;51.082;17.016;2022-09-13T05:49:13;99921.93;;;17.38;44.50
56176;BME280;63065;51.082;17.016;2022-09-13T05:51:39;99918.43;;;17.09;44.75
56176;BME280;63065;51.082;17.016;2022-09-13T05:54:05;99911.12;;;17.30;44.46
56176;BME280;63065;51.082;17.016;2022-09-13T05:56:30;99912.21;;;17.30;44.69
56176;BME280;63065;51.082;17.016;2022-09-13T05:58:56;99911.57;;;17.33;44.59
56176;BME280;63065;51.082;17.016;2022-09-13T06:01:23;99908.91;;;17.41;44.49
56176;BME280;63065;51.082;17.016;2022-09-13T06:03:47;99907.66;;;17.56;44.46
56176;BME280;63065;51.082;17.016;2022-09-13T06:06:12;99901.99;;;17.57;44.27
56176;BME280;63065;51.082;17.016;2022-09-13T06:08:37;99901.33;;;17.56;44.08
56176;BME280;63065;51.082;17.016;2022-09-13T06:11:04;99898.25;;;17.50;44.52
56176;BME280;63065;51.082;17.016;2022-09-13T06:13:29;99891.47;;;17.66;44.29
56176;BME280;63065;51.082;17.016;2022-09-13T06:15:58;99882.02;;;17.64;44.11
56176;BME280;63065;51.082;17.016;2022-09-13T06:18:20;99884.62;;;17.74;44.38
56176;BME280;63065;51.082;17.016;2022-09-13T06:20:45;99882.93;;;17.63;44.36
56176;BME280;63065;51.082;17.016;2022-09-13T06:23:11;99878.54;;;17.76;44.25
56176;BME280;63065;51.082;17.016;2022-09-13T06:25:36;99876.99;;;17.58;44.07
56176;BME280;63065;51.082;17.016;2022-09-13T06:28:02;99875.49;;;17.61;44.36
56176;BME280;63065;51.082;17.016;2022-09-13T06:30:27;99872.19;;;17.78;43.99
56176;BME280;63065;51.082;17.016;2022-09-13T06:32:55;99872.70;;;17.89;44.02
56176;BME280;63065;51.082;17.016;2022-09-13T06:35:18;99864.79;;;17.94;44.12
56176;BME280;63065;51.082;17.016;2022-09-13T06:37:44;99861.48;;;17.95;43.96
56176;BME280;63065;51.082;17.016;2022-09-13T06:40:09;99858.89;;;17.91;44.19
56176;BME280;63065;51.082;17.016;2022-09-13T06:42:34;99852.44;;;17.84;44.45
56176;BME280;63065;51.082;17.016;2022-09-13T06:45:00;99852.96;;;18.47;44.20
56176;BME280;63065;51.082;17.016;2022-09-13T06:47:25;99853.50;;;18.11;44.14
56176;BME280;63065;51.082;17.016;2022-09-13T06:49:51;99856.17;;;18.26;43.78
56176;BME280;63065;51.082;17.016;2022-09-13T06:52:16;99857.77;;;18.41;43.82
56176;BME280;63065;51.082;17.016;2022-09-13T06:54:42;99857.94;;;18.35;44.21
56176;BME280;63065;51.082;17.016;2022-09-13T06:57:07;99859.22;;;18.23;44.45
56176;BME280;63065;51.082;17.016;2022-09-13T06:59:33;99858.70;;;18.31;44.41
56176;BME280;63065;51.082;17.016;2022-09-13T07:01:58;99858.39;;;18.60;44.07
56176;BME280;63065;51.082;17.016;2022-09-13T07:04:24;99858.57;;;18.53;43.82
56176;BME280;63065;51.082;17.016;2022-09-13T07:06:50;99856.41;;;18.71;43.86
56176;BME280;63065;51.082;17.016;2022-09-13T07:09:16;99853.67;;;18.94;43.81
56176;BME280;63065;51.082;17.016;2022-09-13T07:11:41;99854.21;;;19.06;43.28
56176;BME280;63065;51.082;17.016;2022-09-13T07:14:06;99855.90;;;19.20;43.10
56176;BME280;63065;51.082;17.016;2022-09-13T07:16:33;99852.52;;;19.71;42.62
56176;BME280;63065;51.082;17.016;2022-09-13T07:21:22;99850.70;;;19.37;41.51
56176;BME280;63065;51.082;17.016;2022-09-13T07:23:48;99847.04;;;20.00;42.26
56176;BME280;63065;51.082;17.016;2022-09-13T07:26:13;99847.71;;;20.08;42.62
56176;BME280;63065;51.082;17.016;2022-09-13T07:28:41;99840.24;;;20.25;42.32
56176;BME280;63065;51.082;17.016;2022-09-13T07:31:06;99837.30;;;20.06;41.93
56176;BME280;63065;51.082;17.016;2022-09-13T07:33:30;99838.46;;;20.32;41.94
56176;BME280;63065;51.082;17.016;2022-09-13T07:35:56;99846.29;;;20.29;41.65
56176;BME280;63065;51.082;17.016;2022-09-13T07:38:21;99847.75;;;20.59;41.83
56176;BME280;63065;51.082;17.016;2022-09-13T07:40:54;99848.27;;;20.79;41.38
56176;BME280;63065;51.082;17.016;2022-09-13T07:43:12;99848.88;;;20.56;41.49
56176;BME280;63065;51.082;17.016;2022-09-13T07:45:38;99850.09;;;20.74;41.39
56176;BME280;63065;51.082;17.016;2022-09-13T07:48:03;99849.56;;;21.11;41.17
56176;BME280;63065;51.082;17.016;2022-09-13T07:50:29;99848.32;;;20.91;41.42
56176;BME280;63065;51.082;17.016;2022-09-13T07:52:54;99849.18;;;20.73;41.47
56176;BME280;63065;51.082;17.016;2022-09-13T07:55:20;99852.05;;;21.03;41.23
56176;BME280;63065;51.082;17.016;2022-09-13T07:57:46;99853.61;;;21.28;41.44
56176;BME280;63065;51.082;17.016;2022-09-13T08:00:12;99852.56;;;21.22;41.67
56176;BME280;63065;51.082;17.016;2022-09-13T08:02:37;99850.05;;;21.03;41.71
56176;BME280;63065;51.082;17.016;2022-09-13T08:05:02;99846.29;;;20.83;41.70
56176;BME280;63065;51.082;17.016;2022-09-13T08:07:27;99845.10;;;20.98;42.22
56176;BME280;63065;51.082;17.016;2022-09-13T08:09:53;99838.92;;;21.11;42.23
56176;BME280;63065;51.082;17.016;2022-09-13T08:12:18;99836.21;;;20.36;41.49
56176;BME280;63065;51.082;17.016;2022-09-13T08:14:44;99834.18;;;20.88;41.92
56176;BME280;63065;51.082;17.016;2022-09-13T08:17:10;99832.61;;;20.98;42.19
56176;BME280;63065;51.082;17.016;2022-09-13T08:19:36;99831.85;;;21.00;41.57
56176;BME280;63065;51.082;17.016;2022-09-13T08:22:01;99828.04;;;21.17;42.17
56176;BME280;63065;51.082;17.016;2022-09-13T08:24:27;99822.78;;;21.02;41.61
56176;BME280;63065;51.082;17.016;2022-09-13T08:26:53;99825.63;;;20.98;41.19
56176;BME280;63065;51.082;17.016;2022-09-13T08:29:18;99823.61;;;20.84;40.98
56176;BME280;63065;51.082;17.016;2022-09-13T08:31:49;99823.43;;;21.50;42.11
56176;BME280;63065;51.082;17.016;2022-09-13T08:34:10;99819.58;;;20.93;42.32
56176;BME280;63065;51.082;17.016;2022-09-13T08:36:36;99820.88;;;20.90;41.31
56176;BME280;63065;51.082;17.016;2022-09-13T08:39:01;99823.63;;;20.85;41.42
56176;BME280;63065;51.082;17.016;2022-09-13T08:43:58;99817.06;;;21.16;41.67
56176;BME280;63065;51.082;17.016;2022-09-13T08:46:22;99815.46;;;21.16;41.83
56176;BME280;63065;51.082;17.016;2022-09-13T08:48:51;99813.73;;;21.27;42.25
56176;BME280;63065;51.082;17.016;2022-09-13T08:51:19;99811.95;;;21.20;42.31
56176;BME280;63065;51.082;17.016;2022-09-13T08:53:44;99815.23;;;21.25;41.26
56176;BME280;63065;51.082;17.016;2022-09-13T08:56:04;99812.16;;;21.28;41.22
56176;BME280;63065;51.082;17.016;2022-09-13T08:58:40;99810.25;;;21.26;41.25
56176;BME280;63065;51.082;17.016;2022-09-13T09:00:58;99809.67;;;21.56;41.77
56176;BME280;63065;51.082;17.016;2022-09-13T09:03:23;99811.97;;;21.77;40.85
56176;BME280;63065;51.082;17.016;2022-09-13T09:05:45;99806.97;;;21.52;40.46
56176;BME280;63065;51.082;17.016;2022-09-13T09:08:13;99800.54;;;21.43;40.36
56176;BME280;63065;51.082;17.016;2022-09-13T09:10:37;99802.94;;;21.63;40.09
56176;BME280;63065;51.082;17.016;2022-09-13T09:13:03;99796.62;;;22.53;39.01
56176;BME280;63065;51.082;17.016;2022-09-13T09:15:27;99782.70;;;22.37;39.43
56176;BME280;63065;51.082;17.016;2022-09-13T09:17:55;99780.52;;;22.64;39.23
56176;BME280;63065;51.082;17.016;2022-09-13T09:20:24;99777.81;;;22.86;39.35
56176;BME280;63065;51.082;17.016;2022-09-13T09:22:44;99772.04;;;23.27;37.65
56176;BME280;63065;51.082;17.016;2022-09-13T09:25:09;99768.66;;;23.29;38.19
56176;BME280;63065;51.082;17.016;2022-09-13T09:27:34;99767.53;;;23.57;37.51
56176;BME280;63065;51.082;17.016;2022-09-13T09:30:00;99764.95;;;24.06;36.73
56176;BME280;63065;51.082;17.016;2022-09-13T09:32:40;99765.45;;;23.28;36.01
56176;BME280;63065;51.082;17.016;2022-09-13T09:35:07;99766.40;;;23.81;35.97
56176;BME280;63065;51.082;17.016;2022-09-13T09:37:19;99769.13;;;23.90;36.80
56176;BME280;63065;51.082;17.016;2022-09-13T09:39:42;99764.99;;;24.18;36.35
56176;BME280;63065;51.082;17.016;2022-09-13T09:42:11;99759.21;;;24.08;36.78
56176;BME280;63065;51.082;17.016;2022-09-13T09:44:33;99758.90;;;24.07;37.78
56176;BME280;63065;51.082;17.016;2022-09-13T09:47:03;99759.48;;;24.11;37.21
56176;BME280;63065;51.082;17.016;2022-09-13T09:49:29;99753.28;;;23.73;37.18
56176;BME280;63065;51.082;17.016;2022-09-13T09:51:51;99750.53;;;23.97;37.68
56176;BME280;63065;51.082;17.016;2022-09-13T09:54:16;99745.09;;;23.10;35.34
56176;BME280;63065;51.082;17.016;2022-09-13T09:56:51;99745.24;;;23.87;37.32
56176;BME280;63065;51.082;17.016;2022-09-13T10:01:36;99737.16;;;23.43;35.93
56176;BME280;63065;51.082;17.016;2022-09-13T10:04:06;99738.61;;;23.01;37.94
56176;BME280;63065;51.082;17.016;2022-09-13T10:06:25;99735.16;;;22.82;37.84
56176;BME280;63065;51.082;17.016;2022-09-13T10:08:56;99732.81;;;23.09;38.56
56176;BME280;63065;51.082;17.016;2022-09-13T10:11:16;99731.08;;;22.62;38.76
56176;BME280;63065;51.082;17.016;2022-09-13T10:18:34;99717.50;;;22.26;38.94
56176;BME280;63065;51.082;17.016;2022-09-13T10:21:02;99713.50;;;22.17;39.81
56176;BME280;63065;51.082;17.016;2022-09-13T10:23:23;99708.83;;;21.99;40.16
56176;BME280;63065;51.082;17.016;2022-09-13T10:25:55;99704.19;;;21.93;39.88
56176;BME280;63065;51.082;17.016;2022-09-13T10:28:17;99700.33;;;21.68;40.51
56176;BME280;63065;51.082;17.016;2022-09-13T10:30:44;99706.82;;;22.25;40.11
56176;BME280;63065;51.082;17.016;2022-09-13T10:33:09;99705.63;;;22.51;39.23
56176;BME280;63065;51.082;17.016;2022-09-13T10:35:31;99703.92;;;22.47;39.69
56176;BME280;63065;51.082;17.016;2022-09-13T10:37:57;99696.42;;;22.57;39.51
56176;BME280;63065;51.082;17.016;2022-09-13T10:40:26;99693.34;;;22.46;38.76
56176;BME280;63065;51.082;17.016;2022-09-13T10:42:52;99690.74;;;22.60;39.61
56176;BME280;63065;51.082;17.016;2022-09-13T10:45:22;99689.85;;;22.91;37.83
56176;BME280;63065;51.082;17.016;2022-09-13T10:47:44;99688.99;;;23.02;37.61
56176;BME280;63065;51.082;17.016;2022-09-13T10:50:12;99690.54;;;23.42;37.85
56176;BME280;63065;51.082;17.016;2022-09-13T10:52:33;99683.84;;;23.69;38.21
56176;BME280;63065;51.082;17.016;2022-09-13T10:57:30;99683.66;;;24.16;37.62
56176;BME280;63065;51.082;17.016;2022-09-13T10:59:51;99682.59;;;23.94;36.83
56176;BME280;63065;51.082;17.016;2022-09-13T11:02:25;99682.60;;;23.36;36.92
56176;BME280;63065;51.082;17.016;2022-09-13T11:07:14;99677.93;;;23.79;37.16
56176;BME280;63065;51.082;17.016;2022-09-13T11:09:32;99674.48;;;23.55;36.30
56176;BME280;63065;51.082;17.016;2022-09-13T11:12:00;99678.15;;;24.14;36.47
56176;BME280;63065;51.082;17.016;2022-09-13T11:14:33;99677.41;;;24.42;37.11
56176;BME280;63065;51.082;17.016;2022-09-13T11:16:53;99678.08;;;24.18;36.37
56176;BME280;63065;51.082;17.016;2022-09-13T11:19:24;99675.24;;;24.03;36.79
56176;BME280;63065;51.082;17.016;2022-09-13T11:21:46;99673.04;;;23.80;36.83
56176;BME280;63065;51.082;17.016;2022-09-13T11:24:14;99671.05;;;23.92;36.63
56176;BME280;63065;51.082;17.016;2022-09-13T11:26:38;99672.86;;;24.17;36.61
56176;BME280;63065;51.082;17.016;2022-09-13T11:29:00;99668.07;;;24.30;36.53
56176;BME280;63065;51.082;17.016;2022-09-13T11:31:28;99667.26;;;24.50;36.08
56176;BME280;63065;51.082;17.016;2022-09-13T11:33:54;99661.50;;;24.73;36.98
56176;BME280;63065;51.082;17.016;2022-09-13T11:36:24;99659.04;;;24.83;36.68
56176;BME280;63065;51.082;17.016;2022-09-13T11:38:46;99655.43;;;24.31;34.52
56176;BME280;63065;51.082;17.016;2022-09-13T11:41:11;99652.05;;;24.78;35.90
56176;BME280;63065;51.082;17.016;2022-09-13T11:43:38;99649.58;;;24.66;35.75
56176;BME280;63065;51.082;17.016;2022-09-13T11:46:00;99649.95;;;24.66;35.59
56176;BME280;63065;51.082;17.016;2022-09-13T11:50:53;99650.33;;;24.51;37.25
56176;BME280;63065;51.082;17.016;2022-09-13T11:53:26;99644.09;;;24.82;37.44
56176;BME280;63065;51.082;17.016;2022-09-13T11:55:38;99644.77;;;24.93;37.02
56176;BME280;63065;51.082;17.016;2022-09-13T11:58:02;99646.27;;;24.90;36.86
56176;BME280;63065;51.082;17.016;2022-09-13T12:00:28;99637.36;;;24.26;37.76
56176;BME280;63065;51.082;17.016;2022-09-13T12:02:59;99633.57;;;24.22;37.87
56176;BME280;63065;51.082;17.016;2022-09-13T12:05:19;99634.48;;;23.85;38.69
56176;BME280;63065;51.082;17.016;2022-09-13T12:07:45;99636.18;;;24.09;38.49
56176;BME280;63065;51.082;17.016;2022-09-13T12:10:15;99639.95;;;24.07;38.53
56176;BME280;63065;51.082;17.016;2022-09-13T12:12:34;99636.00;;;23.53;39.10
56176;BME280;63065;51.082;17.016;2022-09-13T12:15:02;99634.75;;;23.75;39.32
56176;BME280;63065;51.082;17.016;2022-09-13T12:17:26;99633.67;;;23.81;38.51
56176;BME280;63065;51.082;17.016;2022-09-13T12:19:51;99628.46;;;23.72;37.99
56176;BME280;63065;51.082;17.016;2022-09-13T12:22:15;99624.69;;;23.99;37.80
56176;BME280;63065;51.082;17.016;2022-09-13T12:24:43;99618.80;;;24.10;38.43
56176;BME280;63065;51.082;17.016;2022-09-13T12:27:10;99615.81;;;24.27;38.66
56176;BME280;63065;51.082;17.016;2022-09-13T12:29:35;99613.04;;;23.73;38.43
56176;BME280;63065;51.082;17.016;2022-09-13T12:31:59;99608.69;;;23.98;38.86
56176;BME280;63065;51.082;17.016;2022-09-13T12:34:25;99601.70;;;24.05;38.93
56176;BME280;63065;51.082;17.016;2022-09-13T12:36:57;99597.80;;;24.08;38.77
56176;BME280;63065;51.082;17.016;2022-09-13T12:41:49;99600.25;;;23.82;38.53
56176;BME280;63065;51.082;17.016;2022-09-13T12:46:40;99596.90;;;23.86;38.99
56176;BME280;63065;51.082;17.016;2022-09-13T12:49:09;99597.22;;;23.70;38.58
56176;BME280;63065;51.082;17.016;2022-09-13T12:51:30;99590.97;;;24.26;38.18
56176;BME280;63065;51.082;17.016;2022-09-13T13:01:08;99579.51;;;23.89;38.75
56176;BME280;63065;51.082;17.016;2022-09-13T13:03:31;99578.23;;;23.85;38.90
56176;BME280;63065;51.082;17.016;2022-09-13T13:06:04;99579.89;;;24.40;38.25
56176;BME280;63065;51.082;17.016;2022-09-13T13:08:25;99584.80;;;24.55;37.77
56176;BME280;63065;51.082;17.016;2022-09-13T13:13:12;99579.19;;;24.23;38.21
56176;BME280;63065;51.082;17.016;2022-09-13T13:22:52;99572.95;;;24.37;38.45
56176;BME280;63065;51.082;17.016;2022-09-13T13:25:30;99570.91;;;24.32;37.05